createdAt,value
2019-05-10T00:00:00.799Z,6.40
2019-05-10T00:00:54.349Z,6.40
2019-05-10T00:01:47.566Z,6.40
2019-05-10T00:02:40.832Z,6.40
2019-05-10T00:03:34.111Z,6.50
2019-05-10T00:04:27.535Z,6.50
2019-05-10T00:05:21.164Z,6.50
2019-05-10T00:06:14.449Z,6.50
2019-05-10T00:07:07.635Z,6.40
2019-05-10T00:08:01.239Z,6.40
2019-05-10T00:08:54.660Z,6.40
2019-05-10T00:09:28.055Z,6.40
2019-05-10T00:10:01.271Z,6.30
2019-05-10T00:10:34.607Z,6.30
2019-05-10T00:11:23.814Z,6.20
2019-05-10T00:12:16.919Z,6.20
2019-05-10T00:13:02.532Z,6.20
2019-05-10T00:13:39.690Z,6.10
2019-05-10T00:14:33.107Z,6.00
2019-05-10T00:15:08.268Z,5.90
2019-05-10T00:15:42.432Z,5.80
2019-05-10T00:16:16.825Z,5.70
2019-05-10T00:16:52.884Z,5.70
2019-05-10T00:17:27.290Z,5.60
2019-05-10T00:18:01.690Z,5.60
2019-05-10T00:18:36.259Z,5.60
2019-05-10T00:19:10.714Z,5.50
2019-05-10T00:19:45.469Z,5.50
2019-05-10T00:20:19.960Z,5.50
2019-05-10T00:20:55.411Z,5.40
2019-05-10T00:21:29.768Z,5.30
2019-05-10T00:22:04.276Z,5.30
2019-05-10T00:22:38.391Z,5.20
2019-05-10T00:23:12.810Z,5.20
2019-05-10T00:23:47.192Z,5.20
2019-05-10T00:24:21.705Z,5.10
2019-05-10T00:25:03.844Z,5.10
2019-05-10T00:25:32.026Z,5.10
2019-05-10T00:26:06.668Z,5.10
2019-05-10T00:26:41.342Z,5.00
2019-05-10T00:27:15.782Z,5.00
2019-05-10T00:27:50.040Z,4.90
2019-05-10T00:28:24.574Z,4.90
2019-05-10T00:28:58.951Z,4.90
2019-05-10T00:29:33.076Z,4.80
2019-05-10T00:30:07.667Z,4.80
2019-05-10T00:30:42.112Z,4.80
2019-05-10T00:31:16.625Z,4.80
2019-05-10T00:31:50.721Z,4.80
2019-05-10T00:32:24.951Z,4.80
2019-05-10T00:32:59.465Z,4.80
2019-05-10T00:33:33.941Z,4.70
2019-05-10T00:34:08.133Z,4.80
2019-05-10T00:34:42.588Z,4.70
2019-05-10T00:35:16.895Z,4.70
2019-05-10T00:35:51.331Z,4.70
2019-05-10T00:36:25.749Z,4.70
2019-05-10T00:37:00.309Z,4.70
2019-05-10T00:37:34.538Z,4.60
2019-05-10T00:38:08.860Z,4.70
2019-05-10T00:38:43.300Z,4.60
2019-05-10T00:39:19.490Z,4.60
2019-05-10T00:39:53.637Z,4.60
2019-05-10T00:40:27.943Z,4.60
2019-05-10T00:41:02.258Z,4.60
2019-05-10T00:41:36.500Z,4.50
2019-05-10T00:42:10.982Z,4.50
2019-05-10T00:42:45.357Z,4.50
2019-05-10T00:43:19.473Z,4.40
2019-05-10T00:43:54.185Z,4.40
2019-05-10T00:44:28.500Z,4.30
2019-05-10T00:45:02.715Z,4.30
2019-05-10T00:45:37.094Z,4.40
2019-05-10T00:46:11.717Z,4.40
2019-05-10T00:46:46.094Z,4.40
2019-05-10T00:47:20.424Z,4.40
2019-05-10T00:47:54.622Z,4.40
2019-05-10T00:48:29.130Z,4.40
2019-05-10T00:49:03.535Z,4.30
2019-05-10T00:49:37.865Z,4.40
2019-05-10T00:50:12.508Z,4.30
2019-05-10T00:50:46.730Z,4.40
2019-05-10T00:51:21.158Z,4.30
2019-05-10T00:51:55.661Z,4.30
2019-05-10T00:52:29.937Z,4.30
2019-05-10T00:53:04.325Z,4.30
2019-05-10T00:53:38.785Z,4.30
2019-05-10T00:54:13.120Z,4.30
2019-05-10T00:54:47.229Z,4.30
2019-05-10T00:55:21.651Z,4.20
2019-05-10T00:55:56.070Z,4.20
2019-05-10T00:56:30.300Z,4.20
2019-05-10T00:57:04.580Z,4.20
2019-05-10T00:57:39.123Z,4.20
2019-05-10T00:58:13.529Z,4.20
2019-05-10T00:58:48.520Z,4.30
2019-05-10T00:59:22.746Z,4.30
2019-05-10T00:59:57.027Z,4.30
2019-05-10T01:00:31.338Z,4.20
2019-05-10T01:01:05.874Z,4.20
2019-05-10T01:01:40.265Z,4.30
2019-05-10T01:02:14.709Z,4.20
2019-05-10T01:02:49.028Z,4.30
2019-05-10T01:03:23.303Z,4.30
2019-05-10T01:03:57.439Z,4.30
2019-05-10T01:04:31.650Z,4.30
2019-05-10T01:05:06.106Z,4.30
2019-05-10T01:05:40.387Z,4.30
2019-05-10T01:06:14.526Z,4.30
2019-05-10T01:06:49.246Z,4.30
2019-05-10T01:07:23.540Z,4.30
2019-05-10T01:07:58.121Z,4.30
2019-05-10T01:08:32.374Z,4.30
2019-05-10T01:09:07.580Z,4.30
2019-05-10T01:09:41.876Z,4.30
2019-05-10T01:10:16.363Z,4.30
2019-05-10T01:10:50.573Z,4.30
2019-05-10T01:11:24.875Z,4.30
2019-05-10T01:11:59.498Z,4.30
2019-05-10T01:12:33.785Z,4.30
2019-05-10T01:13:08.097Z,4.30
2019-05-10T01:13:42.550Z,4.40
2019-05-10T01:14:17.089Z,4.40
2019-05-10T01:14:51.290Z,4.40
2019-05-10T01:15:25.723Z,4.40
2019-05-10T01:15:59.894Z,4.40
2019-05-10T01:16:34.116Z,4.40
2019-05-10T01:17:08.345Z,4.40
2019-05-10T01:17:42.823Z,4.50
2019-05-10T01:18:17.235Z,4.50
2019-05-10T01:18:51.767Z,4.50
2019-05-10T01:19:26.042Z,4.60
2019-05-10T01:20:00.327Z,4.60
2019-05-10T01:20:34.658Z,4.60
2019-05-10T01:21:08.990Z,4.60
2019-05-10T01:21:43.540Z,4.60
2019-05-10T01:22:17.772Z,4.70
2019-05-10T01:22:51.997Z,4.70
2019-05-10T01:23:26.288Z,4.70
2019-05-10T01:24:00.656Z,4.70
2019-05-10T01:24:34.966Z,4.70
2019-05-10T01:25:09.626Z,4.60
2019-05-10T01:25:44.116Z,4.60
2019-05-10T01:26:18.389Z,4.60
2019-05-10T01:26:52.419Z,4.60
2019-05-10T01:27:26.934Z,4.60
2019-05-10T01:28:01.110Z,4.60
2019-05-10T01:28:37.287Z,4.60
2019-05-10T01:29:11.340Z,4.60
2019-05-10T01:29:45.672Z,4.60
2019-05-10T01:30:20.648Z,4.60
2019-05-10T01:30:54.845Z,4.60
2019-05-10T01:31:29.260Z,4.60
2019-05-10T01:32:03.731Z,4.60
2019-05-10T01:32:38.319Z,4.60
2019-05-10T01:33:12.558Z,4.60
2019-05-10T01:33:46.689Z,4.60
2019-05-10T01:34:21.001Z,4.60
2019-05-10T01:34:55.615Z,4.60
2019-05-10T01:35:29.842Z,4.60
2019-05-10T01:36:04.232Z,4.60
2019-05-10T01:36:38.556Z,4.60
2019-05-10T01:37:12.978Z,4.60
2019-05-10T01:37:47.190Z,4.60
2019-05-10T01:38:21.448Z,4.60
2019-05-10T01:38:55.777Z,4.60
2019-05-10T01:39:30.286Z,4.50
2019-05-10T01:40:05.251Z,4.50
2019-05-10T01:40:39.498Z,4.50
2019-05-10T01:41:13.788Z,4.40
2019-05-10T01:41:48.323Z,4.40
2019-05-10T01:42:22.593Z,4.40
2019-05-10T01:42:56.675Z,4.30
2019-05-10T01:43:31.014Z,4.30
2019-05-10T01:44:05.304Z,4.30
2019-05-10T01:44:39.779Z,4.20
2019-05-10T01:45:14.406Z,4.20
2019-05-10T01:45:48.865Z,4.20
2019-05-10T01:46:23.423Z,4.10
2019-05-10T01:46:58.085Z,4.10
2019-05-10T01:47:32.299Z,4.10
2019-05-10T01:48:06.707Z,4.10
2019-05-10T01:48:40.966Z,4.00
2019-05-10T01:49:15.177Z,4.10
2019-05-10T01:49:49.288Z,4.00
2019-05-10T01:50:23.593Z,4.00
2019-05-10T01:50:57.927Z,3.90
2019-05-10T01:51:32.307Z,3.90
2019-05-10T01:52:06.502Z,3.90
2019-05-10T01:52:40.805Z,3.90
2019-05-10T01:53:15.119Z,3.90
2019-05-10T01:53:49.559Z,3.90
2019-05-10T01:54:23.726Z,3.90
2019-05-10T01:54:57.966Z,3.80
2019-05-10T01:55:32.187Z,3.90
2019-05-10T01:56:06.528Z,3.90
2019-05-10T01:56:40.767Z,3.80
2019-05-10T01:57:15.222Z,3.80
2019-05-10T01:57:49.490Z,3.80
2019-05-10T01:58:23.745Z,3.80
2019-05-10T01:58:58.048Z,3.80
2019-05-10T01:59:32.425Z,3.80
2019-05-10T02:00:08.937Z,3.80
2019-05-10T02:00:43.207Z,3.80
2019-05-10T02:01:17.483Z,3.70
2019-05-10T02:01:51.925Z,3.70
2019-05-10T02:02:26.337Z,3.70
2019-05-10T02:03:00.885Z,3.70
2019-05-10T02:03:35.157Z,3.70
2019-05-10T02:04:09.652Z,3.70
2019-05-10T02:04:43.900Z,3.70
2019-05-10T02:05:18.688Z,3.60
2019-05-10T02:05:52.920Z,3.50
2019-05-10T02:06:27.375Z,3.50
2019-05-10T02:07:01.630Z,3.50
2019-05-10T02:07:36.521Z,3.50
2019-05-10T02:08:10.815Z,3.60
2019-05-10T02:08:45.223Z,3.50
2019-05-10T02:09:19.458Z,3.50
2019-05-10T02:09:53.788Z,3.40
2019-05-10T02:10:28.140Z,3.40
2019-05-10T02:11:02.811Z,3.40
2019-05-10T02:11:37.355Z,3.40
2019-05-10T02:12:11.599Z,3.40
2019-05-10T02:12:45.699Z,3.40
2019-05-10T02:13:20.064Z,3.30
2019-05-10T02:13:54.576Z,3.30
2019-05-10T02:14:29.078Z,3.20
2019-05-10T02:15:03.283Z,3.20
2019-05-10T02:15:37.753Z,3.20
2019-05-10T02:16:11.996Z,3.10
2019-05-10T02:16:46.652Z,3.10
2019-05-10T02:17:20.721Z,3.10
2019-05-10T02:17:55.247Z,3.10
2019-05-10T02:18:29.618Z,3.10
2019-05-10T02:19:04.034Z,3.10
2019-05-10T02:19:38.327Z,3.10
2019-05-10T02:20:13.449Z,3.10
2019-05-10T02:20:47.958Z,3.10
2019-05-10T02:21:22.373Z,3.10
2019-05-10T02:21:56.461Z,3.10
2019-05-10T02:22:30.771Z,3.00
2019-05-10T02:23:05.206Z,3.00
2019-05-10T02:23:39.428Z,3.00
2019-05-10T02:24:13.592Z,2.90
2019-05-10T02:24:47.791Z,2.90
2019-05-10T02:25:22.081Z,2.90
2019-05-10T02:26:08.858Z,2.90
2019-05-10T02:26:32.399Z,2.90
2019-05-10T02:27:06.930Z,2.90
2019-05-10T02:27:41.343Z,2.90
2019-05-10T02:28:15.630Z,2.90
2019-05-10T02:28:49.750Z,2.90
2019-05-10T02:29:24.067Z,2.80
2019-05-10T02:29:58.560Z,2.90
2019-05-10T02:30:33.174Z,2.80
2019-05-10T02:31:07.492Z,2.80
2019-05-10T02:31:41.997Z,2.80
2019-05-10T02:32:16.306Z,2.80
2019-05-10T02:32:50.850Z,2.80
2019-05-10T02:33:25.222Z,2.80
2019-05-10T02:33:59.589Z,2.70
2019-05-10T02:34:33.878Z,2.70
2019-05-10T02:35:09.097Z,2.70
2019-05-10T02:35:43.138Z,2.70
2019-05-10T02:36:17.686Z,2.70
2019-05-10T02:36:52.838Z,2.70
2019-05-10T02:37:27.320Z,2.70
2019-05-10T02:38:01.381Z,2.70
2019-05-10T02:38:35.897Z,2.80
2019-05-10T02:39:10.507Z,2.80
2019-05-10T02:39:44.907Z,2.70
2019-05-10T02:40:19.301Z,2.80
2019-05-10T02:40:53.728Z,2.70
2019-05-10T02:41:28.210Z,2.80
2019-05-10T02:42:02.999Z,2.80
2019-05-10T02:42:37.359Z,2.80
2019-05-10T02:43:11.689Z,2.70
2019-05-10T02:43:46.140Z,2.70
2019-05-10T02:44:20.463Z,2.70
2019-05-10T02:44:54.860Z,2.70
2019-05-10T02:45:29.494Z,2.60
2019-05-10T02:46:04.049Z,2.60
2019-05-10T02:46:38.498Z,2.60
2019-05-10T02:47:12.814Z,2.50
2019-05-10T02:47:47.124Z,2.50
2019-05-10T02:48:21.449Z,2.50
2019-05-10T02:48:55.793Z,2.50
2019-05-10T02:49:30.111Z,2.50
2019-05-10T02:50:05.102Z,2.50
2019-05-10T02:50:39.564Z,2.50
2019-05-10T02:51:14.042Z,2.50
2019-05-10T02:51:48.320Z,2.50
2019-05-10T02:52:22.551Z,2.50
2019-05-10T02:52:57.090Z,2.40
2019-05-10T02:53:32.344Z,2.40
2019-05-10T02:54:06.913Z,2.40
2019-05-10T02:54:41.424Z,2.40
2019-05-10T02:55:15.832Z,2.30
2019-05-10T02:55:50.889Z,2.30
2019-05-10T02:56:30.891Z,2.30
2019-05-10T02:57:03.641Z,2.30
2019-05-10T02:57:38.348Z,2.40
2019-05-10T02:58:15.388Z,2.40
2019-05-10T02:58:50.018Z,2.40
2019-05-10T02:59:25.842Z,2.30
2019-05-10T03:00:01.647Z,2.30
2019-05-10T03:00:37.611Z,2.30
2019-05-10T03:01:13.477Z,2.30
2019-05-10T03:01:48.034Z,2.30
2019-05-10T03:02:23.588Z,2.30
2019-05-10T03:02:59.698Z,2.30
2019-05-10T03:03:35.975Z,2.30
2019-05-10T03:04:12.544Z,2.30
2019-05-10T03:04:47.772Z,2.30
2019-05-10T03:05:22.249Z,2.30
2019-05-10T03:05:57.531Z,2.30
2019-05-10T03:06:35.871Z,2.30
2019-05-10T03:07:10.885Z,2.40
2019-05-10T03:07:48.008Z,2.40
2019-05-10T03:08:23.970Z,2.30
2019-05-10T03:08:58.445Z,2.30
2019-05-10T03:09:34.102Z,2.40
2019-05-10T03:10:10.699Z,2.40
2019-05-10T03:10:57.664Z,2.30
2019-05-10T03:11:35.787Z,2.40
2019-05-10T03:12:22.851Z,2.40
2019-05-10T03:13:00.028Z,2.40
2019-05-10T03:13:34.580Z,2.30
2019-05-10T03:14:12.577Z,2.30
2019-05-10T03:14:50.111Z,2.40
2019-05-10T03:15:27.325Z,2.30
2019-05-10T03:16:04.605Z,2.40
2019-05-10T03:16:41.998Z,2.30
2019-05-10T03:17:18.847Z,2.30
2019-05-10T03:17:55.850Z,2.30
2019-05-10T03:18:32.530Z,2.30
2019-05-10T03:19:09.133Z,2.30
2019-05-10T03:19:43.981Z,2.30
2019-05-10T03:20:18.375Z,2.30
2019-05-10T03:20:55.697Z,2.30
2019-05-10T03:21:33.330Z,2.30
2019-05-10T03:22:08.110Z,2.40
2019-05-10T03:22:43.975Z,2.40
2019-05-10T03:23:18.774Z,2.40
2019-05-10T03:23:53.192Z,2.40
2019-05-10T03:24:28.157Z,2.40
2019-05-10T03:25:02.459Z,2.40
2019-05-10T03:25:36.817Z,2.40
2019-05-10T03:26:11.249Z,2.30
2019-05-10T03:26:51.387Z,2.30
2019-05-10T03:27:24.663Z,2.30
2019-05-10T03:27:59.058Z,2.30
2019-05-10T03:28:33.567Z,2.20
2019-05-10T03:29:07.851Z,2.20
2019-05-10T03:29:42.310Z,2.30
2019-05-10T03:30:17.065Z,2.30
2019-05-10T03:30:51.351Z,2.40
2019-05-10T03:31:26.832Z,2.40
2019-05-10T03:32:00.975Z,2.30
2019-05-10T03:32:35.544Z,2.40
2019-05-10T03:33:10.022Z,2.30
2019-05-10T03:33:44.337Z,2.30
2019-05-10T03:34:18.706Z,2.30
2019-05-10T03:34:53.073Z,2.30
2019-05-10T03:35:27.630Z,2.30
2019-05-10T03:36:02.072Z,2.40
2019-05-10T03:36:36.508Z,2.40
2019-05-10T03:37:10.963Z,2.40
2019-05-10T03:37:47.047Z,2.40
2019-05-10T03:38:21.877Z,2.40
2019-05-10T03:38:56.149Z,2.50
2019-05-10T03:39:30.656Z,2.50
2019-05-10T03:40:07.352Z,2.60
2019-05-10T03:40:41.874Z,2.60
2019-05-10T03:41:15.988Z,2.60
2019-05-10T03:41:50.744Z,2.70
2019-05-10T03:42:25.498Z,2.70
2019-05-10T03:43:00.081Z,2.80
2019-05-10T03:43:34.281Z,2.80
2019-05-10T03:44:08.755Z,2.90
2019-05-10T03:44:43.058Z,2.90
2019-05-10T03:45:17.678Z,3.00
2019-05-10T03:45:52.096Z,3.00
2019-05-10T03:46:26.306Z,3.10
2019-05-10T03:47:01.035Z,3.20
2019-05-10T03:47:35.636Z,3.20
2019-05-10T03:48:09.824Z,3.30
2019-05-10T03:48:44.130Z,3.40
2019-05-10T03:49:34.650Z,3.40
2019-05-10T03:50:09.299Z,3.50
2019-05-10T03:50:43.533Z,3.50
2019-05-10T03:51:17.842Z,3.60
2019-05-10T03:51:52.054Z,3.60
2019-05-10T03:52:26.450Z,3.70
2019-05-10T03:53:00.803Z,3.70
2019-05-10T03:53:35.164Z,3.80
2019-05-10T03:54:09.665Z,3.80
2019-05-10T03:54:44.177Z,3.90
2019-05-10T03:55:18.320Z,4.00
2019-05-10T03:55:52.777Z,4.00
2019-05-10T03:56:29.322Z,4.10
2019-05-10T03:57:12.809Z,4.10
2019-05-10T03:57:39.211Z,4.10
2019-05-10T03:58:13.577Z,4.20
2019-05-10T03:58:48.209Z,4.30
2019-05-10T03:59:22.502Z,4.30
2019-05-10T03:59:56.944Z,4.30
2019-05-10T04:00:31.471Z,4.30
2019-05-10T04:01:05.748Z,4.40
2019-05-10T04:01:40.060Z,4.40
2019-05-10T04:02:14.100Z,4.40
2019-05-10T04:02:48.491Z,4.40
2019-05-10T04:03:22.861Z,4.50
2019-05-10T04:03:57.205Z,4.50
2019-05-10T04:04:31.437Z,4.60
2019-05-10T04:05:07.109Z,4.60
2019-05-10T04:05:41.686Z,4.70
2019-05-10T04:06:16.191Z,4.70
2019-05-10T04:06:50.418Z,4.70
2019-05-10T04:07:25.008Z,4.80
2019-05-10T04:07:59.511Z,4.80
2019-05-10T04:08:33.993Z,4.80
2019-05-10T04:09:08.110Z,4.80
2019-05-10T04:09:42.401Z,4.90
2019-05-10T04:10:20.623Z,4.90
2019-05-10T04:10:53.781Z,5.00
2019-05-10T04:11:28.053Z,5.10
2019-05-10T04:12:02.584Z,5.10
2019-05-10T04:12:37.125Z,5.20
2019-05-10T04:13:11.638Z,5.20
2019-05-10T04:13:46.153Z,5.20
2019-05-10T04:14:20.429Z,5.30
2019-05-10T04:14:54.849Z,5.30
2019-05-10T04:15:29.472Z,5.40
2019-05-10T04:16:03.868Z,5.30
2019-05-10T04:16:38.184Z,5.30
2019-05-10T04:17:12.477Z,5.40
2019-05-10T04:17:50.158Z,5.40
2019-05-10T04:18:22.709Z,5.40
2019-05-10T04:18:57.035Z,5.50
2019-05-10T04:19:31.525Z,5.50
2019-05-10T04:20:07.158Z,5.60
2019-05-10T04:20:41.219Z,5.60
2019-05-10T04:21:15.685Z,5.60
2019-05-10T04:21:50.094Z,5.60
2019-05-10T04:22:24.397Z,5.70
2019-05-10T04:22:58.768Z,5.70
2019-05-10T04:23:33.007Z,5.80
2019-05-10T04:24:07.281Z,5.80
2019-05-10T04:24:41.602Z,5.80
2019-05-10T04:25:15.806Z,5.80
2019-05-10T04:25:50.313Z,5.90
2019-05-10T04:26:24.616Z,5.80
2019-05-10T04:26:58.977Z,5.80
2019-05-10T04:27:33.451Z,5.90
2019-05-10T04:28:08.064Z,5.90
2019-05-10T04:28:42.574Z,6.00
2019-05-10T04:29:16.968Z,6.00
2019-05-10T04:29:51.062Z,6.00
2019-05-10T04:30:25.477Z,6.00
2019-05-10T04:30:59.778Z,6.10
2019-05-10T04:31:34.198Z,6.10
2019-05-10T04:32:08.282Z,6.10
2019-05-10T04:32:42.792Z,6.10
2019-05-10T04:33:17.197Z,6.20
2019-05-10T04:33:51.421Z,6.20
2019-05-10T04:34:25.599Z,6.20
2019-05-10T04:34:59.819Z,6.20
2019-05-10T04:35:34.227Z,6.30
2019-05-10T04:36:12.271Z,6.30
2019-05-10T04:36:44.471Z,6.30
2019-05-10T04:37:19.013Z,6.30
2019-05-10T04:37:53.367Z,6.40
2019-05-10T04:38:27.537Z,6.40
2019-05-10T04:39:01.874Z,6.40
2019-05-10T04:39:36.380Z,6.50
2019-05-10T04:40:11.098Z,6.50
2019-05-10T04:40:45.697Z,6.50
2019-05-10T04:41:20.013Z,6.60
2019-05-10T04:41:54.341Z,6.70
2019-05-10T04:42:28.627Z,6.70
2019-05-10T04:43:03.064Z,6.80
2019-05-10T04:43:37.336Z,6.80
2019-05-10T04:44:11.654Z,6.90
2019-05-10T04:44:45.946Z,6.90
2019-05-10T04:45:20.762Z,6.90
2019-05-10T04:45:54.801Z,7.00
2019-05-10T04:46:29.156Z,7.10
2019-05-10T04:47:03.456Z,7.10
2019-05-10T04:47:37.884Z,7.10
2019-05-10T04:48:12.249Z,7.20
2019-05-10T04:48:46.596Z,7.20
2019-05-10T04:49:21.139Z,7.30
2019-05-10T04:49:55.368Z,7.40
2019-05-10T04:50:29.714Z,7.40
2019-05-10T04:51:04.374Z,7.50
2019-05-10T04:51:38.610Z,7.50
2019-05-10T04:52:15.880Z,7.60
2019-05-10T04:52:50.213Z,7.60
2019-05-10T04:53:24.607Z,7.70
2019-05-10T04:53:59.147Z,7.70
2019-05-10T04:54:33.413Z,7.80
2019-05-10T04:55:07.801Z,7.80
2019-05-10T04:55:42.287Z,7.80
2019-05-10T04:56:16.627Z,7.90
2019-05-10T04:56:51.033Z,7.90
2019-05-10T04:57:25.159Z,7.90
2019-05-10T04:57:59.748Z,8.00
2019-05-10T04:58:34.155Z,8.00
2019-05-10T04:59:08.416Z,8.10
2019-05-10T04:59:42.509Z,8.20
2019-05-10T05:00:17.854Z,8.30
2019-05-10T05:00:52.199Z,8.40
2019-05-10T05:01:26.422Z,8.40
2019-05-10T05:02:00.844Z,8.50
2019-05-10T05:02:35.210Z,8.60
2019-05-10T05:03:09.759Z,8.60
2019-05-10T05:03:44.120Z,8.70
2019-05-10T05:04:18.319Z,8.70
2019-05-10T05:04:52.638Z,8.70
2019-05-10T05:05:27.025Z,8.80
2019-05-10T05:06:01.395Z,8.80
2019-05-10T05:06:35.746Z,8.90
2019-05-10T05:07:10.156Z,8.90
2019-05-10T05:07:44.749Z,9.00
2019-05-10T05:08:19.041Z,9.00
2019-05-10T05:08:53.157Z,9.10
2019-05-10T05:09:27.431Z,9.10
2019-05-10T05:10:01.763Z,9.20
2019-05-10T05:10:36.071Z,9.20
2019-05-10T05:11:10.160Z,9.30
2019-05-10T05:11:44.627Z,9.30
2019-05-10T05:12:19.155Z,9.40
2019-05-10T05:12:53.603Z,9.40
2019-05-10T05:13:27.806Z,9.50
2019-05-10T05:14:02.207Z,9.50
2019-05-10T05:14:36.868Z,9.60
2019-05-10T05:15:11.510Z,9.60
2019-05-10T05:15:45.727Z,9.70
2019-05-10T05:16:22.997Z,9.70
2019-05-10T05:16:57.937Z,9.70
2019-05-10T05:17:32.537Z,9.70
2019-05-10T05:18:06.946Z,9.80
2019-05-10T05:18:41.349Z,9.80
2019-05-10T05:19:15.728Z,9.80
2019-05-10T05:19:50.052Z,9.90
2019-05-10T05:20:24.310Z,9.90
2019-05-10T05:20:58.581Z,9.90
2019-05-10T05:21:33.183Z,9.90
2019-05-10T05:22:07.622Z,10.00
2019-05-10T05:22:41.990Z,10.10
2019-05-10T05:23:16.563Z,10.20
2019-05-10T05:23:51.000Z,10.30
2019-05-10T05:24:25.406Z,10.50
2019-05-10T05:25:01.089Z,10.60
2019-05-10T05:25:40.287Z,10.70
2019-05-10T05:26:12.921Z,10.80
2019-05-10T05:26:47.479Z,11.00
2019-05-10T05:27:22.991Z,11.10
2019-05-10T05:28:07.214Z,11.20
2019-05-10T05:28:33.831Z,11.30
2019-05-10T05:29:08.136Z,11.50
2019-05-10T05:29:42.727Z,11.60
2019-05-10T05:30:17.803Z,11.80
2019-05-10T05:30:52.413Z,11.80
2019-05-10T05:31:26.683Z,11.90
2019-05-10T05:32:03.543Z,12.00
2019-05-10T05:32:38.464Z,12.10
2019-05-10T05:33:13.813Z,12.30
2019-05-10T05:33:48.111Z,12.30
2019-05-10T05:34:22.620Z,12.30
2019-05-10T05:34:57.142Z,12.40
2019-05-10T05:35:31.828Z,12.50
2019-05-10T05:36:06.352Z,12.50
2019-05-10T05:36:40.997Z,12.50
2019-05-10T05:37:15.775Z,12.60
2019-05-10T05:37:50.286Z,12.70
2019-05-10T05:38:24.771Z,12.80
2019-05-10T05:38:59.417Z,12.80
2019-05-10T05:39:33.980Z,12.90
2019-05-10T05:40:09.775Z,13.00
2019-05-10T05:40:44.095Z,13.20
2019-05-10T05:41:18.483Z,13.30
2019-05-10T05:41:56.609Z,13.30
2019-05-10T05:42:29.502Z,13.40
2019-05-10T05:43:08.156Z,13.40
2019-05-10T05:43:45.681Z,13.60
2019-05-10T05:44:20.403Z,13.60
2019-05-10T05:44:52.465Z,13.70
2019-05-10T05:45:28.307Z,13.80
2019-05-10T05:46:03.026Z,13.90
2019-05-10T05:46:37.693Z,13.90
2019-05-10T05:47:12.428Z,13.80
2019-05-10T05:47:47.003Z,13.80
2019-05-10T05:48:23.124Z,13.80
2019-05-10T05:48:57.868Z,13.80
2019-05-10T05:49:32.475Z,13.80
2019-05-10T05:50:07.482Z,13.90
2019-05-10T05:50:41.820Z,14.00
2019-05-10T05:51:16.371Z,14.10
2019-05-10T05:51:51.092Z,14.10
2019-05-10T05:52:25.644Z,14.20
2019-05-10T05:52:59.858Z,14.20
2019-05-10T05:53:35.734Z,14.20
2019-05-10T05:54:15.231Z,14.10
2019-05-10T05:54:46.604Z,14.20
2019-05-10T05:55:23.139Z,14.30
2019-05-10T05:55:57.365Z,14.50
2019-05-10T05:56:32.015Z,14.60
2019-05-10T05:57:06.367Z,14.60
2019-05-10T05:57:40.668Z,14.60
2019-05-10T05:58:25.501Z,14.60
2019-05-10T05:58:51.958Z,14.60
2019-05-10T05:59:26.452Z,14.70
2019-05-10T06:00:04.341Z,14.80
2019-05-10T06:00:44.535Z,14.70
2019-05-10T06:01:24.295Z,14.70
2019-05-10T06:01:49.528Z,14.80
2019-05-10T06:02:23.924Z,14.80
2019-05-10T06:02:59.258Z,14.80
2019-05-10T06:03:33.756Z,14.80
2019-05-10T06:04:12.491Z,14.90
2019-05-10T06:04:46.251Z,15.00
2019-05-10T06:05:34.003Z,15.20
2019-05-10T06:05:56.643Z,15.30
2019-05-10T06:06:30.855Z,15.50
2019-05-10T06:07:05.263Z,15.40
2019-05-10T06:07:39.935Z,15.30
2019-05-10T06:08:22.973Z,15.40
2019-05-10T06:08:54.607Z,15.40
2019-05-10T06:09:26.573Z,15.40
2019-05-10T06:10:01.135Z,15.40
2019-05-10T06:10:35.590Z,15.40
2019-05-10T06:11:09.845Z,15.50
2019-05-10T06:11:44.239Z,15.60
2019-05-10T06:12:19.008Z,15.60
2019-05-10T06:12:53.475Z,15.60
2019-05-10T06:13:30.207Z,15.40
2019-05-10T06:14:10.591Z,15.50
2019-05-10T06:14:43.163Z,15.60
2019-05-10T06:15:17.617Z,15.50
2019-05-10T06:15:51.901Z,15.50
2019-05-10T06:16:26.364Z,15.40
2019-05-10T06:17:01.012Z,15.30
2019-05-10T06:17:35.588Z,15.30
2019-05-10T06:18:12.065Z,15.30
2019-05-10T06:18:47.312Z,15.20
2019-05-10T06:19:29.554Z,15.30
2019-05-10T06:20:01.044Z,15.10
2019-05-10T06:20:38.146Z,15.30
2019-05-10T06:21:10.866Z,15.30
2019-05-10T06:21:45.555Z,15.30
2019-05-10T06:22:20.040Z,15.20
2019-05-10T06:23:05.658Z,15.20
2019-05-10T06:23:35.099Z,15.20
2019-05-10T06:24:12.952Z,15.10
2019-05-10T06:24:46.854Z,15.30
2019-05-10T06:25:28.829Z,15.40
2019-05-10T06:25:55.383Z,15.40
2019-05-10T06:26:30.637Z,15.50
2019-05-10T06:27:05.500Z,15.70
2019-05-10T06:27:40.904Z,15.80
2019-05-10T06:28:26.421Z,16.00
2019-05-10T06:28:59.691Z,16.20
2019-05-10T06:29:28.602Z,16.20
2019-05-10T06:30:02.977Z,16.30
2019-05-10T06:30:37.446Z,16.50
2019-05-10T06:31:11.941Z,16.40
2019-05-10T06:31:46.418Z,16.50
2019-05-10T06:32:20.664Z,16.50
2019-05-10T06:33:00.873Z,16.40
2019-05-10T06:33:31.291Z,16.60
2019-05-10T06:34:06.138Z,16.80
2019-05-10T06:34:40.467Z,16.80
2019-05-10T06:35:19.415Z,16.70
2019-05-10T06:35:51.390Z,16.60
2019-05-10T06:36:25.874Z,16.80
2019-05-10T06:37:00.275Z,17.00
2019-05-10T06:37:34.702Z,17.10
2019-05-10T06:38:09.448Z,17.10
2019-05-10T06:38:43.813Z,17.10
2019-05-10T06:39:18.234Z,17.10
2019-05-10T06:39:52.679Z,17.40
2019-05-10T06:40:35.581Z,17.60
2019-05-10T06:41:03.713Z,17.60
2019-05-10T06:41:38.033Z,17.70
2019-05-10T06:42:15.267Z,17.60
2019-05-10T06:42:49.760Z,17.20
2019-05-10T06:43:24.469Z,17.20
2019-05-10T06:43:59.032Z,17.10
2019-05-10T06:44:33.615Z,17.00
2019-05-10T06:45:14.539Z,16.90
2019-05-10T06:45:46.802Z,17.10
2019-05-10T06:46:23.765Z,16.90
2019-05-10T06:47:02.257Z,16.80
2019-05-10T06:47:33.531Z,16.80
2019-05-10T06:48:08.050Z,17.00
2019-05-10T06:48:42.439Z,17.00
2019-05-10T06:49:16.972Z,17.30
2019-05-10T06:49:52.401Z,17.30
2019-05-10T06:50:29.814Z,17.20
2019-05-10T06:51:09.555Z,17.10
2019-05-10T06:51:42.911Z,17.10
2019-05-10T06:52:16.575Z,17.10
2019-05-10T06:52:52.123Z,17.20
2019-05-10T06:53:26.915Z,17.20
2019-05-10T06:54:02.557Z,17.10
2019-05-10T06:54:37.328Z,17.30
2019-05-10T06:55:12.209Z,17.30
2019-05-10T06:55:46.497Z,17.30
2019-05-10T06:56:20.720Z,17.50
2019-05-10T06:56:55.408Z,17.60
2019-05-10T06:57:30.246Z,17.50
2019-05-10T06:58:04.696Z,17.60
2019-05-10T06:58:39.158Z,17.80
2019-05-10T06:59:19.004Z,18.00
2019-05-10T06:59:50.215Z,17.80
2019-05-10T07:00:24.509Z,17.80
2019-05-10T07:00:58.839Z,18.00
2019-05-10T07:01:38.128Z,18.20
2019-05-10T07:02:09.777Z,18.50
2019-05-10T07:02:44.414Z,18.80
2019-05-10T07:03:18.987Z,18.70
2019-05-10T07:03:53.733Z,18.90
2019-05-10T07:04:28.260Z,19.00
2019-05-10T07:05:02.692Z,19.00
2019-05-10T07:05:37.133Z,19.10
2019-05-10T07:06:11.594Z,19.20
2019-05-10T07:06:46.356Z,19.10
2019-05-10T07:07:41.705Z,18.80
2019-05-10T07:07:59.990Z,18.30
2019-05-10T07:08:43.706Z,18.10
2019-05-10T07:09:09.914Z,17.80
2019-05-10T07:10:03.325Z,17.30
2019-05-10T07:10:25.133Z,17.30
2019-05-10T07:10:57.178Z,17.20
2019-05-10T07:11:32.309Z,17.20
2019-05-10T07:12:09.402Z,17.20
2019-05-10T07:12:43.253Z,17.20
2019-05-10T07:13:19.675Z,17.20
2019-05-10T07:13:54.723Z,17.10
2019-05-10T07:14:29.550Z,17.20
2019-05-10T07:15:05.526Z,17.10
2019-05-10T07:15:42.082Z,17.20
2019-05-10T07:16:23.974Z,17.50
2019-05-10T07:16:56.658Z,17.70
2019-05-10T07:17:30.058Z,17.80
2019-05-10T07:18:04.819Z,17.90
2019-05-10T07:18:39.737Z,17.90
2019-05-10T07:19:14.294Z,17.90
2019-05-10T07:19:53.616Z,18.20
2019-05-10T07:20:29.555Z,18.40
2019-05-10T07:21:06.585Z,18.50
2019-05-10T07:21:39.035Z,18.80
2019-05-10T07:22:14.555Z,18.50
2019-05-10T07:22:49.342Z,18.50
2019-05-10T07:23:24.073Z,18.50
2019-05-10T07:23:58.788Z,18.30
2019-05-10T07:24:33.634Z,18.40
2019-05-10T07:25:08.687Z,18.60
2019-05-10T07:25:46.436Z,18.60
2019-05-10T07:26:24.320Z,18.30
2019-05-10T07:26:56.560Z,18.40
2019-05-10T07:27:36.732Z,18.40
2019-05-10T07:28:15.502Z,18.20
2019-05-10T07:28:45.888Z,18.00
2019-05-10T07:29:29.556Z,17.80
2019-05-10T07:29:56.998Z,17.70
2019-05-10T07:30:35.064Z,17.50
2019-05-10T07:31:09.540Z,17.40
2019-05-10T07:31:44.396Z,17.50
2019-05-10T07:32:22.302Z,17.70
2019-05-10T07:32:59.740Z,17.90
2019-05-10T07:33:36.655Z,18.30
2019-05-10T07:34:09.681Z,18.60
2019-05-10T07:34:48.863Z,19.00
2019-05-10T07:35:20.770Z,19.50
2019-05-10T07:35:55.612Z,19.70
2019-05-10T07:36:30.942Z,19.90
2019-05-10T07:37:06.106Z,19.90
2019-05-10T07:37:40.679Z,20.20
2019-05-10T07:38:15.340Z,20.20
2019-05-10T07:38:49.993Z,20.60
2019-05-10T07:39:24.675Z,21.00
2019-05-10T07:40:03.107Z,21.30
2019-05-10T07:40:35.462Z,21.20
2019-05-10T07:41:09.917Z,21.10
2019-05-10T07:41:44.499Z,21.10
2019-05-10T07:42:19.235Z,21.20
2019-05-10T07:42:53.680Z,21.30